CheckWX is a tool to help pilots better visualize weather data.  It is not intended as a substitute for an official pre-flight weather briefing.

05:13:10 UTC

KFYJ METAR
Middle Peninsula Regional Airport
West Point, Virginia, USA
Current

18 mins ago

KFYJ 240455Z AUTO 34003KT 5SM BKN007 OVC010 04/04 A3009 RMK AO1 P0001 T00440043
Observed
Feb-24 @ 04:55 UTC
Wind
  • 340° at 3 KTS
Visibility
5 SM
Flight Rules
IFR
Cloud Levels
  • Broken at 700' AGL
  • Overcast at 1,000' AGL
Temperature
C / 39°F
Dewpoint
C / 39°F
Humidity
100%
Altimeter
30.09" Hg
Pressure
1018.92 hPa
Current Rain
0.01"
Previous

38 mins ago

KFYJ 240435Z AUTO 34005KT 4SM BKN007 OVC010 05/05 A3009 RMK AO1 P0001 T00450045
Observed
Feb-24 @ 04:35 UTC
Wind
  • 340° at 5 KTS
Visibility
4 SM
Flight Rules
IFR
Cloud Levels
  • Broken at 700' AGL
  • Overcast at 1,000' AGL
Temperature
C / 41°F
Dewpoint
C / 41°F
Humidity
100%
Altimeter
30.09" Hg
Pressure
1018.92 hPa
Current Rain
0.01"
Previous

58 mins ago

KFYJ 240415Z AUTO 34005KT 3SM BKN005 OVC010 05/05 A3009 RMK AO1 P0001 T00460046
Observed
Feb-24 @ 04:15 UTC
Wind
  • 340° at 5 KTS
Visibility
3 SM
Flight Rules
IFR
Cloud Levels
  • Broken at 500' AGL
  • Overcast at 1,000' AGL
Temperature
C / 41°F
Dewpoint
C / 41°F
Humidity
100%
Altimeter
30.09" Hg
Pressure
1018.92 hPa
Current Rain
0.01"